Time;durP1;ratioP1;P1;durP2;ratioP2;P2;SDS_P1;SDS_P2;PMS_P1;PMS_P2;Temp;Humidity;BMP_temperature;BMP_pressure;BME280_temperature;BME280_humidity;BME280_pressure;Samples;Min_cycle;Max_cycle;Signal;HPM_P1;HPM_P2
2021/04/30 00:00:09;;;;;;;1.00;1.00;;;;;;;15.17;65.43;93256.97;5089428;28;20032;-34
2021/04/30 00:02:35;;;;;;;3.30;1.67;;;;;;;15.13;65.62;93257.41;5089386;28;20710;-34
2021/04/30 00:05:00;;;;;;;4.95;2.08;;;;;;;15.11;65.71;93271.16;5089432;28;20509;-34
2021/04/30 00:07:26;;;;;;;1.33;1.23;;;;;;;14.90;66.82;93273.03;5089573;28;20020;-34
2021/04/30 00:09:51;;;;;;;2.50;1.90;;;;;;;14.89;66.92;93277.09;5089464;28;20049;-35
2021/04/30 00:12:17;;;;;;;0.40;0.40;;;;;;;14.98;66.71;93282.69;5089624;28;20526;-34
2021/04/30 00:14:42;;;;;;;1.75;0.95;;;;;;;15.00;66.70;93285.63;5089306;28;20466;-34
2021/04/30 00:17:08;;;;;;;2.58;2.05;;;;;;;15.07;66.48;93295.88;5096230;28;20032;-34
2021/04/30 00:19:34;;;;;;;1.75;1.65;;;;;;;15.04;66.99;93299.84;5109621;28;20027;-35
2021/04/30 00:21:59;;;;;;;1.65;1.55;;;;;;;15.03;66.94;93292.78;5108436;28;20032;-35
2021/04/30 00:24:25;;;;;;;0.70;0.70;;;;;;;15.04;67.13;93296.31;5103311;28;20035;-35
2021/04/30 00:26:50;;;;;;;0.88;0.88;;;;;;;15.14;66.53;93286.66;5089051;28;20581;-34
2021/04/30 00:29:16;;;;;;;1.48;1.38;;;;;;;15.12;66.71;93286.53;5089503;28;20039;-34
2021/04/30 00:31:42;;;;;;;1.55;1.42;;;;;;;15.11;67.52;93287.13;5089487;28;20023;-34
2021/04/30 00:34:08;;;;;;;0.25;0.25;;;;;;;15.18;67.26;93289.75;5089195;28;20478;-34
2021/04/30 00:36:33;;;;;;;0.80;0.80;;;;;;;15.13;67.59;93290.03;5089268;28;20063;-34
2021/04/30 00:38:59;;;;;;;1.77;1.65;;;;;;;15.11;67.32;93296.19;5089177;28;20093;-34
2021/04/30 00:41:26;;;;;;;1.05;1.05;;;;;;;15.07;67.15;93295.16;5089424;28;20510;-34
2021/04/30 00:43:52;;;;;;;1.50;1.45;;;;;;;14.96;67.84;93296.44;5089955;28;20057;-35
2021/04/30 00:46:17;;;;;;;0.60;0.60;;;;;;;15.04;67.50;93299.09;5093312;28;20085;-35
2021/04/30 00:48:43;;;;;;;2.67;1.67;;;;;;;15.12;67.49;93296.91;5092896;28;20511;-35
2021/04/30 00:51:08;;;;;;;0.80;0.80;;;;;;;15.08;67.88;93305.69;5111984;28;20075;-34
2021/04/30 00:53:34;;;;;;;3.17;1.88;;;;;;;15.01;67.85;93294.69;5113423;28;20023;-34
2021/04/30 00:55:59;;;;;;;0.85;0.80;;;;;;;14.96;68.21;93292.94;5112973;28;20496;-35
2021/04/30 00:58:26;;;;;;;2.20;2.03;;;;;;;14.96;68.66;93288.13;5112713;28;20039;-34
2021/04/30 01:00:53;;;;;;;0.60;0.60;;;;;;;14.98;68.26;93293.81;5111717;28;20015;-34
2021/04/30 01:03:19;;;;;;;0.55;0.55;;;;;;;15.05;68.14;93300.56;5111717;28;20488;-35
2021/04/30 01:05:44;;;;;;;2.38;1.38;;;;;;;15.07;68.30;93295.16;5113045;28;20118;-35
2021/04/30 01:08:10;;;;;;;2.67;1.23;;;;;;;15.06;68.47;93302.75;5112782;28;20419;-34
2021/04/30 01:10:35;;;;;;;2.38;2.13;;;;;;;15.14;68.03;93297.78;5112168;28;20488;-34
2021/04/30 01:13:01;;;;;;;0.70;0.70;;;;;;;15.28;67.79;93308.50;5108560;28;20153;-34
2021/04/30 01:15:27;;;;;;;0.80;0.80;;;;;;;15.29;67.32;93307.91;5092242;28;20111;-36
2021/04/30 01:17:52;;;;;;;1.45;1.35;;;;;;;15.24;67.74;93314.50;5092174;28;20107;-36
2021/04/30 01:20:19;;;;;;;1.67;1.55;;;;;;;15.18;67.47;93309.22;5092380;28;20024;-36
2021/04/30 01:22:47;;;;;;;0.75;0.75;;;;;;;15.23;67.38;93315.06;5092211;28;20032;-37
2021/04/30 01:25:15;;;;;;;1.35;1.27;;;;;;;15.27;67.85;93304.28;5091795;28;20024;-37
2021/04/30 01:27:41;;;;;;;1.02;1.00;;;;;;;15.26;67.60;93309.09;5091777;28;20464;-37
2021/04/30 01:30:14;;;;;;;8.40;2.72;;;;;;;15.36;67.37;93311.88;5091879;28;20031;-37
2021/04/30 01:32:40;;;;;;;0.95;0.95;;;;;;;15.34;67.44;93309.69;5091827;28;20115;-37
2021/04/30 01:35:07;;;;;;;0.50;0.47;;;;;;;14.99;68.57;93314.00;5092089;28;20038;-36
2021/04/30 01:37:32;;;;;;;13.05;2.75;;;;;;;14.90;69.01;93304.31;5091964;28;20424;-36
2021/04/30 01:39:58;;;;;;;1.73;1.60;;;;;;;14.82;69.44;93317.59;5091986;28;20035;-36
2021/04/30 01:42:23;;;;;;;1.63;1.42;;;;;;;14.99;68.74;93314.00;5091960;28;20462;-36
2021/04/30 01:44:49;;;;;;;0.75;0.75;;;;;;;14.95;68.70;93317.22;5091672;28;20032;-36
2021/04/30 01:47:16;;;;;;;2.50;1.20;;;;;;;15.03;68.91;93319.84;5090682;28;20036;-36
2021/04/30 01:49:41;;;;;;;0.60;0.60;;;;;;;15.08;68.15;93319.59;5091860;28;20408;-36
2021/04/30 01:52:07;;;;;;;1.73;1.50;;;;;;;14.97;68.59;93327.75;5091509;28;20024;-36
2021/04/30 01:54:32;;;;;;;0.77;0.77;;;;;;;14.54;70.12;93312.66;5091815;28;20038;-36
2021/04/30 01:56:57;;;;;;;0.55;0.45;;;;;;;14.63;70.06;93325.88;5090441;28;20488;-36
2021/04/30 01:59:23;;;;;;;1.13;1.13;;;;;;;14.64;70.14;93315.50;5091310;28;20027;-36
2021/04/30 02:01:48;;;;;;;1.73;1.63;;;;;;;14.54;70.46;93315.44;5091323;28;20039;-36
2021/04/30 02:04:14;;;;;;;0.73;0.73;;;;;;;14.60;70.18;93310.34;5091575;28;20019;-36
2021/04/30 02:06:40;;;;;;;1.10;1.08;;;;;;;14.40;70.73;93322.69;5091524;28;20028;-36
2021/04/30 02:09:09;;;;;;;0.80;0.80;;;;;;;14.51;70.37;93322.16;5093786;28;20445;-36
2021/04/30 02:11:35;;;;;;;1.50;0.82;;;;;;;14.41;70.46;93313.78;5111513;28;20540;-36
2021/04/30 02:14:01;;;;;;;1.63;1.55;;;;;;;14.46;70.04;93319.66;5111877;28;20057;-36
2021/04/30 02:16:27;;;;;;;1.67;1.58;;;;;;;14.24;70.99;93316.59;5111941;27;20058;-36
2021/04/30 02:18:52;;;;;;;5.07;1.02;;;;;;;14.26;70.75;93318.78;5112018;28;20027;-36
2021/04/30 02:21:18;;;;;;;2.92;1.80;;;;;;;14.43;70.12;93324.31;5112003;28;20568;-35
2021/04/30 02:23:43;;;;;;;3.00;1.75;;;;;;;14.33;70.40;93329.81;5111073;28;20447;-35
2021/04/30 02:26:09;;;;;;;1.33;1.23;;;;;;;14.09;71.42;93327.16;5091316;28;20654;-35
2021/04/30 02:28:34;;;;;;;4.18;1.58;;;;;;;14.08;71.86;93329.19;5090298;28;20048;-35
2021/04/30 02:31:00;;;;;;;2.03;1.92;;;;;;;14.13;71.49;93327.47;5091156;28;20028;-35
2021/04/30 02:33:25;;;;;;;0.57;0.57;;;;;;;14.08;72.10;93320.84;5090829;28;20031;-35
2021/04/30 02:35:51;;;;;;;1.30;1.20;;;;;;;14.12;71.83;93328.78;5091029;28;20077;-35
2021/04/30 02:38:18;;;;;;;1.17;1.17;;;;;;;14.23;71.39;93331.03;5091009;28;20016;-35
2021/04/30 02:40:46;;;;;;;1.05;0.95;;;;;;;14.38;70.43;93326.03;5090902;28;20051;-35
2021/04/30 02:43:14;;;;;;;0.77;0.77;;;;;;;14.10;71.74;93320.28;5090450;28;20020;-35
2021/04/30 02:45:40;;;;;;;1.42;1.33;;;;;;;14.10;71.74;93317.50;5090525;28;20534;-36
2021/04/30 02:48:13;;;;;;;1.80;1.67;;;;;;;14.12;71.94;93312.84;5090446;28;20024;-36
2021/04/30 02:50:40;;;;;;;1.17;1.08;;;;;;;14.18;72.08;93324.44;5090413;28;20044;-36
2021/04/30 02:53:06;;;;;;;0.82;0.82;;;;;;;14.16;72.26;93327.03;5090376;28;20024;-36
2021/04/30 02:55:31;;;;;;;1.25;1.20;;;;;;;14.26;71.87;93330.63;5090725;28;20027;-36
2021/04/30 02:57:58;;;;;;;0.70;0.70;;;;;;;14.31;71.67;93337.25;5090551;28;20035;-36
2021/04/30 03:00:25;;;;;;;4.93;1.33;;;;;;;14.36;70.91;93333.47;5090292;28;20081;-36
2021/04/30 03:02:51;;;;;;;1.33;1.10;;;;;;;14.32;70.94;93335.94;5090514;28;20470;-36
2021/04/30 03:05:17;;;;;;;0.20;0.20;;;;;;;14.25;71.59;93334.69;5091887;28;20034;-35
2021/04/30 03:07:43;;;;;;;1.95;1.60;;;;;;;14.18;72.02;93335.56;5110662;28;20025;-35
2021/04/30 03:10:10;;;;;;;0.73;0.73;;;;;;;14.07;72.26;93341.63;5109470;28;20016;-35
2021/04/30 03:12:36;;;;;;;2.33;2.15;;;;;;;14.02;72.11;93339.06;5110402;28;20118;-35
2021/04/30 03:15:02;;;;;;;1.35;1.25;;;;;;;13.84;73.27;93334.88;5110423;28;20062;-35
2021/04/30 03:17:27;;;;;;;0.75;0.75;;;;;;;13.87;73.32;93336.47;5110155;28;20081;-35
2021/04/30 03:19:53;;;;;;;0.60;0.60;;;;;;;13.93;72.71;93339.72;5110600;28;20020;-35
2021/04/30 03:22:19;;;;;;;0.85;0.82;;;;;;;13.94;72.37;93347.50;5110185;28;20576;-35
2021/04/30 03:24:45;;;;;;;0.80;0.73;;;;;;;13.60;73.56;93364.88;5101339;28;20031;-35
2021/04/30 03:27:10;;;;;;;1.35;1.35;;;;;;;13.50;73.57;93361.31;5089656;28;20577;-35
2021/04/30 03:29:36;;;;;;;1.77;1.65;;;;;;;13.53;73.31;93367.75;5089741;28;20061;-35
2021/04/30 03:32:01;;;;;;;1.42;1.30;;;;;;;13.15;74.22;93372.91;5089837;28;20019;-36
2021/04/30 03:34:26;;;;;;;1.15;1.15;;;;;;;13.32;73.88;93376.44;5089674;28;20230;-36
2021/04/30 03:36:52;;;;;;;1.50;1.02;;;;;;;13.49;73.18;93381.28;5090035;28;20031;-35
2021/04/30 03:39:17;;;;;;;1.65;1.55;;;;;;;13.57;72.71;93385.47;5089953;28;20020;-35
2021/04/30 03:41:43;;;;;;;1.73;1.63;;;;;;;13.55;72.98;93379.75;5089923;28;20485;-35
2021/04/30 03:44:08;;;;;;;1.55;1.25;;;;;;;13.20;74.25;93386.53;5089610;28;20024;-35
2021/04/30 03:46:34;;;;;;;1.88;0.57;;;;;;;13.39;73.61;93392.28;5089599;28;20027;-35
2021/04/30 03:48:59;;;;;;;0.60;0.60;;;;;;;13.52;73.01;93389.19;5089556;28;20031;-35
2021/04/30 03:51:24;;;;;;;1.75;1.65;;;;;;;13.61;72.52;93394.09;5089502;28;20024;-35
2021/04/30 03:53:50;;;;;;;0.98;0.98;;;;;;;13.47;73.31;93397.78;5089591;28;20020;-35
2021/04/30 03:56:15;;;;;;;1.83;1.73;;;;;;;13.31;72.57;93390.88;5089770;28;20024;-35
2021/04/30 03:58:41;;;;;;;1.27;1.23;;;;;;;12.87;74.16;93391.38;5089753;28;20020;-35
2021/04/30 04:01:06;;;;;;;2.83;1.55;;;;;;;12.92;74.86;93395.22;5089501;28;20024;-35
2021/04/30 04:03:33;;;;;;;1.77;1.67;;;;;;;12.99;75.10;93400.00;5108165;28;20088;-35
2021/04/30 04:05:58;;;;;;;1.70;1.60;;;;;;;12.99;74.79;93405.53;5109988;28;20458;-35
2021/04/30 04:08:24;;;;;;;2.10;1.88;;;;;;;12.80;75.09;93405.28;5109549;28;20019;-35
2021/04/30 04:10:49;;;;;;;0.70;0.70;;;;;;;12.86;74.96;93401.00;5109923;28;20031;-35
2021/04/30 04:13:20;;;;;;;0.70;0.70;;;;;;;12.98;74.52;93409.59;5110163;28;20024;-35
2021/04/30 04:15:47;;;;;;;5.00;3.80;;;;;;;13.10;73.43;93412.69;5109742;28;20066;-35
2021/04/30 04:18:13;;;;;;;2.90;2.70;;;;;;;13.00;74.03;93423.63;5110069;28;20023;-35
2021/04/30 04:20:39;;;;;;;4.47;4.07;;;;;;;12.87;74.24;93412.81;5113397;28;20103;-35
2021/04/30 04:23:04;;;;;;;7.15;6.15;;;;;;;12.81;74.66;93412.31;5114094;28;20106;-35
2021/04/30 04:25:30;;;;;;;6.13;5.57;;;;;;;13.13;73.76;93423.38;5113382;28;20024;-34
2021/04/30 04:27:55;;;;;;;4.43;3.22;;;;;;;12.90;74.37;93401.34;5113427;28;20071;-34
2021/04/30 04:30:22;;;;;;;9.82;4.68;;;;;;;13.40;74.37;93429.06;5109852;28;20019;-34
2021/04/30 04:32:47;;;;;;;2.95;2.67;;;;;;;13.92;71.70;93438.94;5100801;28;20497;-34
2021/04/30 04:35:13;;;;;;;2.88;2.35;;;;;;;14.02;70.88;93430.69;5092885;28;20053;-34
2021/04/30 04:37:39;;;;;;;3.10;2.78;;;;;;;14.10;70.55;93436.88;5093052;28;20073;-34
2021/04/30 04:40:04;;;;;;;1.33;0.80;;;;;;;14.25;70.03;93439.50;5093028;28;20027;-34
2021/04/30 04:42:30;;;;;;;3.95;1.65;;;;;;;14.23;70.23;93455.97;5092951;28;20031;-34
2021/04/30 04:44:55;;;;;;;0.80;0.80;;;;;;;14.50;69.81;93462.38;5093171;28;20016;-34
2021/04/30 04:47:21;;;;;;;2.45;2.13;;;;;;;14.72;68.87;93460.63;5093129;28;20016;-34
2021/04/30 04:49:46;;;;;;;2.75;2.33;;;;;;;15.08;68.73;93463.44;5092708;28;20531;-34
2021/04/30 04:52:12;;;;;;;5.60;2.28;;;;;;;14.84;67.97;93448.41;5093099;28;20020;-34
2021/04/30 04:54:37;;;;;;;1.30;1.20;;;;;;;15.08;68.39;93474.56;5092985;28;20027;-34
2021/04/30 04:57:03;;;;;;;2.10;1.95;;;;;;;15.05;67.90;93470.19;5096139;28;20081;-34
2021/04/30 04:59:28;;;;;;;1.83;1.73;;;;;;;15.12;67.87;93477.66;5110151;28;20085;-34
2021/04/30 05:01:54;;;;;;;1.10;1.10;;;;;;;15.28;67.76;93478.91;5112081;28;20104;-34
2021/04/30 05:04:20;;;;;;;1.65;1.55;;;;;;;15.44;67.24;93480.16;5101937;28;20050;-34
2021/04/30 05:06:46;;;;;;;1.00;0.98;;;;;;;15.75;67.02;93472.81;5094562;28;20032;-34
2021/04/30 05:09:11;;;;;;;0.93;0.93;;;;;;;16.24;65.17;93468.78;5092684;28;20082;-34
2021/04/30 05:11:37;;;;;;;0.95;0.93;;;;;;;16.75;64.40;93475.25;5092629;28;20024;-34
2021/04/30 05:14:03;;;;;;;1.00;1.00;;;;;;;16.94;63.06;93462.03;5092334;28;20481;-34
2021/04/30 05:16:28;;;;;;;1.00;1.00;;;;;;;17.21;63.16;93470.94;5092395;28;20173;-34
2021/04/30 05:18:54;;;;;;;1.25;1.25;;;;;;;17.40;62.68;93472.91;5092515;28;20517;-34
2021/04/30 05:21:19;;;;;;;2.00;1.63;;;;;;;17.60;62.14;93482.72;5092290;28;20738;-34
2021/04/30 05:23:45;;;;;;;1.15;1.05;;;;;;;17.72;60.96;93466.03;5092064;28;20023;-34
2021/04/30 05:26:10;;;;;;;2.20;2.08;;;;;;;17.94;60.20;93478.72;5092397;28;20028;-34
2021/04/30 05:28:36;;;;;;;1.58;1.48;;;;;;;18.10;59.67;93477.72;5091890;28;20044;-34
2021/04/30 05:31:02;;;;;;;1.60;1.48;;;;;;;18.16;59.51;93485.78;5090947;28;20115;-34
2021/04/30 05:33:27;;;;;;;1.40;0.68;;;;;;;17.98;59.04;93485.31;5092222;28;20458;-34
2021/04/30 05:35:53;;;;;;;1.75;1.65;;;;;;;17.94;59.77;93485.03;5092227;28;20024;-35
2021/04/30 05:38:18;;;;;;;5.75;1.77;;;;;;;17.75;59.17;93485.13;5092171;28;20477;-35
2021/04/30 05:40:44;;;;;;;2.05;1.80;;;;;;;17.73;59.87;93487.78;5092142;28;20051;-34
2021/04/30 05:43:11;;;;;;;3.95;2.53;;;;;;;17.74;59.96;93480.88;5091973;28;20107;-34
2021/04/30 05:45:37;;;;;;;6.50;4.18;;;;;;;17.59;60.66;93480.50;5091810;28;20020;-34
2021/04/30 05:48:02;;;;;;;3.38;3.08;;;;;;;17.64;61.18;93496.19;5091381;28;20024;-35
2021/04/30 05:50:28;;;;;;;8.10;3.38;;;;;;;17.64;61.33;93473.88;5091547;28;20016;-35
2021/04/30 05:52:53;;;;;;;2.65;2.25;;;;;;;17.90;61.56;93495.94;5091612;28;20097;-35
2021/04/30 05:55:19;;;;;;;1.55;1.45;;;;;;;17.98;60.67;93482.50;5091845;28;20035;-35
2021/04/30 05:57:44;;;;;;;3.08;1.85;;;;;;;18.04;60.19;93488.50;5092943;28;20750;-35
2021/04/30 06:00:11;;;;;;;1.55;1.45;;;;;;;17.94;60.81;93479.44;5112110;28;20030;-35
2021/04/30 06:02:37;;;;;;;2.55;2.38;;;;;;;17.93;60.27;93477.25;5111656;28;20033;-35
2021/04/30 06:05:04;;;;;;;1.00;1.00;;;;;;;18.12;59.75;93474.34;5110526;28;20023;-35
2021/04/30 06:07:29;;;;;;;2.17;1.40;;;;;;;18.46;59.15;93485.03;5109075;28;20407;-35
2021/04/30 06:09:55;;;;;;;2.35;2.20;;;;;;;18.50;59.35;93478.94;5109813;28;20023;-35
2021/04/30 06:12:20;;;;;;;2.22;1.92;;;;;;;18.18;58.61;93492.25;5109536;28;20032;-35
2021/04/30 06:14:46;;;;;;;1.40;1.10;;;;;;;18.17;59.31;93482.38;5109305;28;20020;-36
2021/04/30 06:17:11;;;;;;;2.67;2.08;;;;;;;18.43;60.22;93483.38;5106333;28;20042;-36
2021/04/30 06:19:37;;;;;;;1.40;1.30;;;;;;;19.05;59.20;93486.72;5093437;28;20036;-36
2021/04/30 06:22:03;;;;;;;2.47;2.28;;;;;;;19.74;55.10;93477.72;5089168;28;20515;-35
2021/04/30 06:24:28;;;;;;;1.50;1.40;;;;;;;20.28;54.45;93483.81;5088272;28;20044;-36
2021/04/30 06:26:54;;;;;;;2.17;1.77;;;;;;;20.83;54.15;93482.09;5089033;28;20228;-36
2021/04/30 06:29:19;;;;;;;0.77;0.77;;;;;;;21.80;50.49;93493.78;5088618;28;20487;-36
2021/04/30 06:31:45;;;;;;;1.10;1.02;;;;;;;22.73;48.07;93484.53;5088719;28;20031;-36
2021/04/30 06:34:10;;;;;;;10.02;6.93;;;;;;;23.64;44.58;93491.75;5102763;28;20044;-36
2021/04/30 06:36:36;;;;;;;2.78;2.17;;;;;;;24.73;42.47;93486.06;5093435;28;20030;-36
2021/04/30 06:39:03;;;;;;;2.00;1.80;;;;;;;25.76;39.34;93478.94;5089739;28;20028;-36
2021/04/30 06:41:28;;;;;;;1.63;1.52;;;;;;;26.63;36.90;93489.25;5089921;28;20523;-36
2021/04/30 06:43:54;;;;;;;0.85;0.70;;;;;;;27.60;35.72;93495.38;5108556;28;20035;-36
2021/04/30 06:46:21;;;;;;;2.28;1.20;;;;;;;28.54;31.83;93495.34;5108084;28;20088;-37
2021/04/30 06:48:47;;;;;;;1.35;1.25;;;;;;;28.90;29.81;93494.94;5107046;28;20388;-36
2021/04/30 06:51:13;;;;;;;1.30;1.02;;;;;;;28.15;30.47;93504.19;5106983;28;20070;-36
2021/04/30 06:53:39;;;;;;;0.85;0.73;;;;;;;28.40;30.28;93494.97;5106999;28;20042;-36
2021/04/30 06:56:04;;;;;;;3.33;0.70;;;;;;;29.88;27.95;93505.25;5100519;28;20535;-37
2021/04/30 06:58:30;;;;;;;0.50;0.50;;;;;;;30.69;28.08;93504.88;5095808;28;20050;-37
2021/04/30 07:00:55;;;;;;;0.73;0.73;;;;;;;31.76;25.45;93504.00;5106254;28;20039;-37
2021/04/30 07:03:21;;;;;;;0.20;0.20;;;;;;;32.33;24.92;93509.16;5108447;28;20032;-36
2021/04/30 07:05:46;;;;;;;0.75;0.75;;;;;;;32.37;23.27;93511.34;5108673;28;20030;-36
2021/04/30 07:08:12;;;;;;;0.55;0.35;;;;;;;31.78;22.11;93515.44;5108018;28;20525;-36
2021/04/30 07:10:37;;;;;;;0.98;0.63;;;;;;;31.71;21.80;93511.03;5108071;28;20031;-36
2021/04/30 07:13:16;;;;;;;1.27;0.52;;;;;;;31.04;25.82;93515.56;5108161;28;20028;-36
2021/04/30 07:15:41;;;;;;;1.13;1.02;;;;;;;32.06;22.00;93507.34;5108428;28;20496;-37
2021/04/30 07:18:07;;;;;;;1.85;1.15;;;;;;;33.03;22.89;93511.50;5108189;28;20087;-36
2021/04/30 07:20:34;;;;;;;3.45;0.90;;;;;;;33.02;19.08;93512.91;5108142;28;20023;-36
2021/04/30 07:23:01;;;;;;;1.17;0.80;;;;;;;33.61;21.63;93504.22;5108385;28;20031;-39
2021/04/30 07:25:26;;;;;;;0.82;0.63;;;;;;;34.49;20.51;93514.19;5092141;28;20027;-39
2021/04/30 07:27:52;;;;;;;0.15;0.15;;;;;;;34.46;18.48;93507.00;5087940;28;20188;-37
2021/04/30 07:30:18;;;;;;;0.60;0.40;;;;;;;34.71;18.97;93500.72;5099559;28;20849;-37
2021/04/30 07:32:44;;;;;;;2.55;1.75;;;;;;;34.71;18.25;93512.19;5106254;28;20059;-36
2021/04/30 07:35:10;;;;;;;0.20;0.20;;;;;;;34.70;19.06;93512.88;5108129;28;20028;-38
2021/04/30 07:37:37;;;;;;;0.57;0.57;;;;;;;34.32;19.41;93522.72;5106612;28;20027;-37
2021/04/30 07:40:06;;;;;;;0.73;0.57;;;;;;;35.19;19.05;93511.66;5108264;28;20028;-37
2021/04/30 07:42:32;;;;;;;0.28;0.28;;;;;;;34.50;20.04;93510.63;5108115;28;20035;-37
2021/04/30 07:44:57;;;;;;;1.65;0.60;;;;;;;35.50;18.40;93510.31;5107720;28;20039;-37
2021/04/30 07:47:23;;;;;;;0.57;0.57;;;;;;;36.06;17.20;93506.06;5105026;28;20195;-37
2021/04/30 07:49:48;;;;;;;0.75;0.40;;;;;;;36.84;18.07;93511.63;5089093;28;20024;-37
2021/04/30 07:52:14;;;;;;;0.57;0.57;;;;;;;37.09;16.80;93509.41;5089375;28;20424;-37
2021/04/30 07:54:39;;;;;;;0.20;0.15;;;;;;;37.17;16.68;93509.38;5086474;28;20032;-37
2021/04/30 07:57:05;;;;;;;2.70;0.68;;;;;;;37.16;16.02;93517.31;5087529;28;20028;-38
2021/04/30 07:59:32;;;;;;;0.08;0.08;;;;;;;37.22;16.17;93510.78;5087116;28;20019;-37
2021/04/30 08:01:58;;;;;;;0.57;0.35;;;;;;;37.70;16.22;93504.75;5087339;28;20057;-37
2021/04/30 08:04:23;;;;;;;0.85;0.50;;;;;;;37.94;15.27;93503.88;5087536;28;20055;-37
2021/04/30 08:06:49;;;;;;;1.05;0.73;;;;;;;38.42;15.34;93494.78;5087395;28;20542;-37
2021/04/30 08:09:14;;;;;;;0.70;0.65;;;;;;;38.47;14.65;93498.34;5087307;28;20085;-37
2021/04/30 08:11:40;;;;;;;0.68;0.45;;;;;;;38.58;15.11;93494.63;5086919;28;20027;-37
2021/04/30 08:14:09;;;;;;;0.85;0.25;;;;;;;38.13;15.83;93490.72;5087024;28;20026;-37
2021/04/30 08:16:38;;;;;;;0.20;0.20;;;;;;;38.86;15.05;93501.56;5087429;28;20453;-37
2021/04/30 08:19:04;;;;;;;0.15;0.15;;;;;;;38.89;14.58;93491.41;5087413;28;20179;-37
2021/04/30 08:21:30;;;;;;;0.43;0.40;;;;;;;39.23;13.48;93500.38;5087246;28;20107;-37
2021/04/30 08:23:56;;;;;;;0.55;0.55;;;;;;;38.72;13.86;93496.69;5087072;28;20115;-37
2021/04/30 08:26:22;;;;;;;1.48;1.08;;;;;;;38.29;14.00;93492.78;5107372;28;20055;-37
2021/04/30 08:28:51;;;;;;;0.35;0.35;;;;;;;38.57;13.59;93481.63;5107424;28;20047;-37
2021/04/30 08:31:17;;;;;;;0.40;0.10;;;;;;;38.24;14.84;93483.41;5107716;28;20048;-37
2021/04/30 08:33:42;;;;;;;0.30;0.30;;;;;;;38.01;14.07;93476.41;5107762;28;20019;-37
2021/04/30 08:36:08;;;;;;;0.20;0.10;;;;;;;37.67;14.48;93462.25;5090249;28;20034;-37
2021/04/30 08:38:34;;;;;;;3.40;0.88;;;;;;;38.12;14.94;93471.28;5090355;28;20034;-38
2021/04/30 08:41:00;;;;;;;0.73;0.30;;;;;;;38.57;14.71;93470.09;5093549;28;20035;-37
2021/04/30 08:43:26;;;;;;;0.10;0.10;;;;;;;38.32;13.55;93466.06;5086363;28;20420;-37
2021/04/30 08:45:54;;;;;;;0.52;0.30;;;;;;;37.78;14.72;93467.22;5086374;28;20066;-37
2021/04/30 08:48:21;;;;;;;0.10;0.10;;;;;;;38.81;13.75;93463.38;5103635;28;20570;-37
2021/04/30 08:50:47;;;;;;;0.77;0.77;;;;;;;39.24;14.13;93446.22;5106758;28;20040;-35
2021/04/30 08:53:13;;;;;;;0.32;0.32;;;;;;;39.42;14.39;93457.50;5098114;28;20028;-36
2021/04/30 08:55:40;;;;;;;0.20;0.20;;;;;;;39.36;13.59;93464.09;5086782;28;20031;-37
2021/04/30 08:58:07;;;;;;;0.10;0.00;;;;;;;38.20;13.69;93468.31;5086941;28;20038;-36
2021/04/30 09:00:33;;;;;;;0.32;0.32;;;;;;;38.84;12.91;93455.38;5087261;28;20032;-35
2021/04/30 09:02:59;;;;;;;0.30;0.30;;;;;;;38.57;13.08;93458.56;5091296;28;20028;-36
2021/04/30 09:05:30;;;;;;;0.43;0.30;;;;;;;38.58;14.05;93457.13;5097612;28;20035;-35
2021/04/30 09:07:58;;;;;;;0.10;0.05;;;;;;;38.42;13.77;93456.59;5088725;28;20758;-35
2021/04/30 09:10:23;;;;;;;;;;;;;;;38.96;13.05;93461.03;5091075;28;20038;-36
2021/04/30 09:13:07;;;;;;;0.32;0.30;;;;;;;39.18;13.21;93461.47;5090414;28;19908;-36
2021/04/30 09:15:34;;;;;;;0.90;0.47;;;;;;;39.25;12.24;93453.41;5090473;28;20032;-36
2021/04/30 09:18:15;;;;;;;0.30;0.30;;;;;;;38.69;13.18;93460.63;5090347;28;20040;-36
2021/04/30 09:20:41;;;;;;;0.00;0.00;;;;;;;38.53;12.53;93455.72;5090367;28;20066;-36
2021/04/30 09:23:31;;;;;;;4.05;1.20;;;;;;;38.33;13.78;93458.84;5089976;28;20812;-35
2021/04/30 09:25:56;;;;;;;4.72;0.43;;;;;;;38.97;13.53;93454.50;5108201;28;20586;-35
2021/04/30 09:28:22;;;;;;;1.30;1.08;;;;;;;39.05;14.33;93453.69;5110025;28;20047;-35
2021/04/30 09:30:48;;;;;;;0.20;0.10;;;;;;;39.28;13.27;93449.78;5092245;27;20436;-36
2021/04/30 09:33:15;;;;;;;0.95;0.30;;;;;;;39.89;12.41;93446.69;5089834;28;20106;-36
2021/04/30 09:35:53;;;;;;;0.00;0.00;;;;;;;40.58;12.08;93448.38;5108442;28;20031;-36
2021/04/30 09:38:29;;;;;;;0.10;0.10;;;;;;;40.44;12.54;93442.84;5110135;28;20023;-36
2021/04/30 09:41:00;;;;;;;1.13;0.38;;;;;;;40.09;12.25;93440.56;5110179;28;20527;-36
2021/04/30 09:43:27;;;;;;;0.00;0.00;;;;;;;40.37;12.10;93435.75;5102305;28;20504;-36
2021/04/30 09:45:52;;;;;;;0.10;0.10;;;;;;;39.99;12.34;93434.25;5089351;28;20630;-35
2021/04/30 09:48:18;;;;;;;1.38;0.63;;;;;;;40.06;11.68;93433.41;5089873;28;20107;-35
2021/04/30 09:50:44;;;;;;;1.45;0.98;;;;;;;39.92;13.10;93433.63;5089760;28;20085;-36
2021/04/30 09:53:12;;;;;;;0.95;0.28;;;;;;;40.43;12.17;93429.88;5089586;28;20044;-35
2021/04/30 09:55:38;;;;;;;;;;;;;;;40.78;12.11;93427.72;5090052;28;20024;-35
2021/04/30 09:58:16;;;;;;;0.93;0.37;;;;;;;41.02;11.73;93432.31;5089398;28;19912;-35
2021/04/30 10:00:43;;;;;;;0.20;0.20;;;;;;;40.49;9.67;93426.84;5089339;28;20032;-35
2021/04/30 10:03:28;;;;;;;0.22;0.10;;;;;;;40.87;11.95;93426.09;5089132;28;20035;-36
2021/04/30 10:06:08;;;;;;;0.65;0.10;;;;;;;40.72;12.40;93413.34;5089326;28;20032;-35
2021/04/30 10:08:35;;;;;;;0.17;0.17;;;;;;;40.82;12.53;93413.16;5089113;28;20089;-35
2021/04/30 10:11:01;;;;;;;0.00;0.00;;;;;;;40.36;12.42;93420.56;5089313;28;20131;-35
2021/04/30 10:13:26;;;;;;;0.10;0.10;;;;;;;39.65;11.25;93415.28;5089340;28;20115;-35
2021/04/30 10:15:52;;;;;;;0.43;0.20;;;;;;;39.20;13.04;93415.22;5088619;28;20035;-36
2021/04/30 10:18:18;;;;;;;0.00;0.00;;;;;;;37.71;13.84;93416.13;5088792;28;20035;-35
2021/04/30 10:20:47;;;;;;;0.00;0.00;;;;;;;35.97;16.18;93409.78;5087670;28;20024;-35
2021/04/30 10:23:19;;;;;;;0.47;0.47;;;;;;;36.11;15.60;93410.47;5089118;28;20058;-36
2021/04/30 10:25:47;;;;;;;0.05;0.05;;;;;;;36.18;13.95;93411.88;5104853;28;20488;-36
2021/04/30 10:28:15;;;;;;;1.65;0.63;;;;;;;36.75;16.24;93409.53;5108897;28;20142;-36
2021/04/30 10:30:50;;;;;;;0.75;0.20;;;;;;;37.01;17.44;93412.31;5091885;28;20039;-36
2021/04/30 10:33:30;;;;;;;0.20;0.20;;;;;;;37.20;15.26;93412.91;5087660;28;20032;-36
2021/04/30 10:36:17;;;;;;;0.22;0.22;;;;;;;37.06;15.12;93407.22;5087660;28;20032;-35
2021/04/30 10:38:53;;;;;;;0.33;0.30;;;;;;;37.66;14.60;93400.34;5088622;28;20077;-35
2021/04/30 10:41:38;;;;;;;0.10;0.10;;;;;;;38.09;14.88;93401.38;5088515;28;20040;-35
2021/04/30 10:44:23;;;;;;;0.28;0.28;;;;;;;39.40;14.81;93385.31;5088828;28;20109;-35
2021/04/30 10:46:53;;;;;;;0.20;0.20;;;;;;;40.09;13.21;93379.13;5088583;28;20032;-35
2021/04/30 10:49:20;;;;;;;0.10;0.10;;;;;;;40.49;12.06;93375.47;5087117;28;20027;-35
2021/04/30 10:52:25;;;;;;;0.25;0.22;;;;;;;39.98;11.58;93369.91;5088456;28;20032;-35
2021/04/30 10:55:06;;;;;;;4.18;0.20;;;;;;;38.92;12.88;93362.91;5094487;28;20613;-35
2021/04/30 10:57:55;;;;;;;7.60;2.20;;;;;;;38.48;13.88;93364.19;5094151;28;20061;-35
2021/04/30 11:00:36;;;;;;;0.10;0.10;;;;;;;39.00;15.36;93360.63;5090497;28;20409;-35
2021/04/30 11:03:13;;;;;;;0.22;0.22;;;;;;;39.30;13.32;93363.09;5088057;28;20108;-35
2021/04/30 11:05:57;;;;;;;0.63;0.60;;;;;;;39.15;13.80;93358.25;5088153;28;20027;-35
2021/04/30 11:08:54;;;;;;;0.15;0.15;;;;;;;38.86;14.63;93357.94;5087863;28;20488;-35
2021/04/30 11:11:37;;;;;;;0.10;0.10;;;;;;;38.70;15.43;93349.50;5087297;28;20024;-35
2021/04/30 11:14:18;;;;;;;0.10;0.10;;;;;;;38.48;14.95;93344.00;5087188;28;20111;-35
2021/04/30 11:16:47;;;;;;;0.28;0.28;;;;;;;38.23;14.91;93334.88;5087368;28;20032;-35
2021/04/30 11:19:13;;;;;;;1.00;0.95;;;;;;;37.70;14.99;93346.25;5098391;28;20529;-35
2021/04/30 11:21:51;;;;;;;1.33;0.20;;;;;;;36.89;14.62;93351.91;5107923;28;20039;-35
2021/04/30 11:24:28;;;;;;;1.75;1.10;;;;;;;36.63;17.09;93339.81;5107128;28;20019;-35
2021/04/30 11:27:17;;;;;;;0.20;0.20;;;;;;;36.58;16.43;93342.00;5107469;28;20052;-35
2021/04/30 11:29:42;;;;;;;0.20;0.20;;;;;;;36.47;15.81;93329.84;5100726;28;20035;-35
2021/04/30 11:32:24;;;;;;;0.00;0.00;;;;;;;35.91;16.01;93330.00;5107798;28;20088;-35
2021/04/30 11:34:50;;;;;;;2.78;1.25;;;;;;;35.74;16.66;93320.72;5107528;28;20432;-36